sensor_id;sensor_type;location;lat;lon;timestamp;pressure;altitude;pressure_sealevel;temperature;humidity
58311;BME280;45001;52.218;5.154;2022-11-15T00:01:10;100838.78;;;17.62;55.49
58311;BME280;45001;52.218;5.154;2022-11-15T00:03:39;100838.16;;;17.60;55.39
58311;BME280;45001;52.218;5.154;2022-11-15T00:06:04;100847.06;;;17.60;55.20
58311;BME280;45001;52.218;5.154;2022-11-15T00:08:31;100836.28;;;17.60;55.41
58311;BME280;45001;52.218;5.154;2022-11-15T00:10:58;100832.94;;;17.58;55.58
58311;BME280;45001;52.218;5.154;2022-11-15T00:13:23;100826.72;;;17.58;55.56
58311;BME280;45001;52.218;5.154;2022-11-15T00:15:49;100815.09;;;17.57;55.37
58311;BME280;45001;52.218;5.154;2022-11-15T00:18:15;100826.72;;;17.58;55.63
58311;BME280;45001;52.218;5.154;2022-11-15T00:20:40;100831.69;;;17.54;55.52
58311;BME280;45001;52.218;5.154;2022-11-15T00:23:06;100817.16;;;17.55;55.54
58311;BME280;45001;52.218;5.154;2022-11-15T00:25:32;100807.44;;;17.54;55.69
58311;BME280;45001;52.218;5.154;2022-11-15T00:27:59;100808.44;;;17.53;55.70
58311;BME280;45001;52.218;5.154;2022-11-15T00:30:24;100808.44;;;17.53;55.54
58311;BME280;45001;52.218;5.154;2022-11-15T00:32:50;100817.56;;;17.52;55.61
58311;BME280;45001;52.218;5.154;2022-11-15T00:35:15;100822.97;;;17.52;55.51
58311;BME280;45001;52.218;5.154;2022-11-15T00:37:41;100804.47;;;17.49;55.62
58311;BME280;45001;52.218;5.154;2022-11-15T00:40:07;100820.66;;;17.49;55.81
58311;BME280;45001;52.218;5.154;2022-11-15T00:42:33;100815.44;;;17.48;55.50
58311;BME280;45001;52.218;5.154;2022-11-15T00:44:58;100812.13;;;17.46;55.51
58311;BME280;45001;52.218;5.154;2022-11-15T00:47:23;100796.78;;;17.46;55.81
58311;BME280;45001;52.218;5.154;2022-11-15T00:49:49;100804.03;;;17.46;55.77
58311;BME280;45001;52.218;5.154;2022-11-15T00:52:14;100795.13;;;17.45;55.83
58311;BME280;45001;52.218;5.154;2022-11-15T00:54:39;100792.44;;;17.45;55.87
58311;BME280;45001;52.218;5.154;2022-11-15T00:57:04;100799.47;;;17.46;55.84
58311;BME280;45001;52.218;5.154;2022-11-15T00:59:30;100793.44;;;17.44;55.84
58311;BME280;45001;52.218;5.154;2022-11-15T01:01:55;100788.06;;;17.44;56.02
58311;BME280;45001;52.218;5.154;2022-11-15T01:04:20;100786.41;;;17.43;56.14
58311;BME280;45001;52.218;5.154;2022-11-15T01:06:48;100784.72;;;17.42;55.87
58311;BME280;45001;52.218;5.154;2022-11-15T01:09:13;100785.78;;;17.41;56.05
58311;BME280;45001;52.218;5.154;2022-11-15T01:11:39;100785.78;;;17.41;55.96
58311;BME280;45001;52.218;5.154;2022-11-15T01:14:04;100779.53;;;17.40;56.03
58311;BME280;45001;52.218;5.154;2022-11-15T01:16:30;100784.72;;;17.42;55.69
58311;BME280;45001;52.218;5.154;2022-11-15T01:18:55;100778.91;;;17.38;56.04
58311;BME280;45001;52.218;5.154;2022-11-15T01:21:21;100781.41;;;17.40;56.04
58311;BME280;45001;52.218;5.154;2022-11-15T01:23:46;100780.59;;;17.39;55.77
58311;BME280;45001;52.218;5.154;2022-11-15T01:26:14;100775.38;;;17.38;56.08
58311;BME280;45001;52.218;5.154;2022-11-15T01:28:40;100779.09;;;17.37;55.88
58311;BME280;45001;52.218;5.154;2022-11-15T01:31:15;100777.44;;;17.36;55.88
58311;BME280;45001;52.218;5.154;2022-11-15T01:33:41;100773.06;;;17.35;55.94
58311;BME280;45001;52.218;5.154;2022-11-15T01:36:12;100766.03;;;17.34;55.98
58311;BME280;45001;52.218;5.154;2022-11-15T01:38:38;100768.53;;;17.35;55.94
58311;BME280;45001;52.218;5.154;2022-11-15T01:41:04;100771.41;;;17.34;56.12
58311;BME280;45001;52.218;5.154;2022-11-15T01:43:32;100758.78;;;17.34;55.76
58311;BME280;45001;52.218;5.154;2022-11-15T01:46:19;100761.66;;;17.33;55.92
58311;BME280;45001;52.218;5.154;2022-11-15T01:48:48;100762.72;;;17.32;56.01
58311;BME280;45001;52.218;5.154;2022-11-15T01:51:16;100760.00;;;17.32;56.03
58311;BME280;45001;52.218;5.154;2022-11-15T01:53:45;100755.63;;;17.31;55.98
58311;BME280;45001;52.218;5.154;2022-11-15T01:56:13;100746.91;;;17.29;56.35
58311;BME280;45001;52.218;5.154;2022-11-15T01:58:40;100748.78;;;17.28;56.14
58311;BME280;45001;52.218;5.154;2022-11-15T02:01:07;100753.31;;;17.28;56.28
58311;BME280;45001;52.218;5.154;2022-11-15T02:03:52;100749.00;;;17.27;56.53
58311;BME280;45001;52.218;5.154;2022-11-15T02:06:21;100748.16;;;17.26;56.50
58311;BME280;45001;52.218;5.154;2022-11-15T02:08:47;100744.41;;;17.27;56.25
58311;BME280;45001;52.218;5.154;2022-11-15T02:11:13;100741.91;;;17.25;56.54
58311;BME280;45001;52.218;5.154;2022-11-15T02:13:38;100738.41;;;17.25;56.42
58311;BME280;45001;52.218;5.154;2022-11-15T02:16:17;100731.13;;;17.25;56.21
58311;BME280;45001;52.218;5.154;2022-11-15T02:19:18;100727.81;;;17.23;56.15
58311;BME280;45001;52.218;5.154;2022-11-15T02:30:41;100703.75;;;17.22;56.29
58311;BME280;45001;52.218;5.154;2022-11-15T02:33:40;100706.25;;;17.23;56.31
58311;BME280;45001;52.218;5.154;2022-11-15T02:39:18;100695.03;;;17.20;56.39
58311;BME280;45001;52.218;5.154;2022-11-15T02:41:53;100694.84;;;17.21;56.46
58311;BME280;45001;52.218;5.154;2022-11-15T02:44:33;100689.88;;;17.18;56.58
58311;BME280;45001;52.218;5.154;2022-11-15T02:47:05;100684.28;;;17.20;56.60
58311;BME280;45001;52.218;5.154;2022-11-15T02:49:39;100679.72;;;17.20;56.51
58311;BME280;45001;52.218;5.154;2022-11-15T02:52:04;100685.31;;;17.19;56.30
58311;BME280;45001;52.218;5.154;2022-11-15T02:54:32;100675.38;;;17.19;56.19
58311;BME280;45001;52.218;5.154;2022-11-15T02:57:12;100669.34;;;17.17;56.53
58311;BME280;45001;52.218;5.154;2022-11-15T02:59:56;100669.34;;;17.17;56.62
58311;BME280;45001;52.218;5.154;2022-11-15T03:02:35;100667.66;;;17.16;56.48
58311;BME280;45001;52.218;5.154;2022-11-15T03:10:25;100672.22;;;17.16;56.59
58311;BME280;45001;52.218;5.154;2022-11-15T03:12:55;100667.22;;;17.13;56.30
58311;BME280;45001;52.218;5.154;2022-11-15T03:15:29;100671.78;;;17.12;56.80
58311;BME280;45001;52.218;5.154;2022-11-15T03:18:02;100666.41;;;17.12;56.41
58311;BME280;45001;52.218;5.154;2022-11-15T03:20:30;100670.34;;;17.10;56.31
58311;BME280;45001;52.218;5.154;2022-11-15T03:23:02;100674.69;;;17.11;56.73
58311;BME280;45001;52.218;5.154;2022-11-15T03:25:31;100668.47;;;17.10;56.61
58311;BME280;45001;52.218;5.154;2022-11-15T03:27:58;100672.22;;;17.09;56.74
58311;BME280;45001;52.218;5.154;2022-11-15T03:30:27;100667.00;;;17.08;56.80
58311;BME280;45001;52.218;5.154;2022-11-15T03:32:56;100672.22;;;17.09;56.75
58311;BME280;45001;52.218;5.154;2022-11-15T03:35:25;100660.59;;;17.09;56.59
58311;BME280;45001;52.218;5.154;2022-11-15T03:37:57;100673.59;;;17.05;56.72
58311;BME280;45001;52.218;5.154;2022-11-15T03:40:29;100672.41;;;17.08;56.76
58311;BME280;45001;52.218;5.154;2022-11-15T03:46:04;100674.66;;;17.04;56.84
58311;BME280;45001;52.218;5.154;2022-11-15T03:48:38;100680.03;;;17.04;56.58
58311;BME280;45001;52.218;5.154;2022-11-15T03:51:04;100670.09;;;17.04;56.68
58311;BME280;45001;52.218;5.154;2022-11-15T03:53:30;100661.19;;;17.04;56.85
58311;BME280;45001;52.218;5.154;2022-11-15T03:55:57;100662.19;;;17.03;56.74
58311;BME280;45001;52.218;5.154;2022-11-15T03:58:23;100653.09;;;17.04;56.83
58311;BME280;45001;52.218;5.154;2022-11-15T04:00:48;100665.09;;;17.01;56.80
58311;BME280;45001;52.218;5.154;2022-11-15T04:03:14;100660.56;;;17.02;56.65
58311;BME280;45001;52.218;5.154;2022-11-15T04:05:39;100654.13;;;17.03;56.79
58311;BME280;45001;52.218;5.154;2022-11-15T04:08:05;100659.59;;;17.16;56.39
58311;BME280;45001;52.218;5.154;2022-11-15T04:10:30;100662.41;;;17.36;56.21
58311;BME280;45001;52.218;5.154;2022-11-15T04:12:55;100655.47;;;17.69;55.20
58311;BME280;45001;52.218;5.154;2022-11-15T04:15:22;100651.66;;;18.05;54.16
58311;BME280;45001;52.218;5.154;2022-11-15T04:17:52;100640.47;;;18.41;53.34
58311;BME280;45001;52.218;5.154;2022-11-15T04:23:06;100650.00;;;18.97;51.87
58311;BME280;45001;52.218;5.154;2022-11-15T04:25:52;100652.06;;;19.22;51.41
58311;BME280;45001;52.218;5.154;2022-11-15T04:28:18;100643.03;;;19.48;50.76
58311;BME280;45001;52.218;5.154;2022-11-15T04:30:43;100637.28;;;19.69;50.48
58311;BME280;45001;52.218;5.154;2022-11-15T04:33:09;100644.91;;;19.92;50.00
58311;BME280;45001;52.218;5.154;2022-11-15T04:35:34;100638.09;;;20.15;49.56
58311;BME280;45001;52.218;5.154;2022-11-15T04:38:01;100633.78;;;20.32;49.13
58311;BME280;45001;52.218;5.154;2022-11-15T04:40:26;100642.00;;;20.44;48.96
58311;BME280;45001;52.218;5.154;2022-11-15T04:42:52;100640.69;;;20.53;48.80
58311;BME280;45001;52.218;5.154;2022-11-15T04:45:17;100630.66;;;20.61;48.84
58311;BME280;45001;52.218;5.154;2022-11-15T04:47:44;100626.50;;;20.58;48.86
58311;BME280;45001;52.218;5.154;2022-11-15T04:50:10;100631.53;;;20.55;48.75
58311;BME280;45001;52.218;5.154;2022-11-15T04:52:39;100626.75;;;20.50;49.11
58311;BME280;45001;52.218;5.154;2022-11-15T04:55:05;100634.75;;;20.45;49.12
58311;BME280;45001;52.218;5.154;2022-11-15T04:57:30;100620.41;;;20.38;49.45
58311;BME280;45001;52.218;5.154;2022-11-15T04:59:55;100636.72;;;20.31;49.60
58311;BME280;45001;52.218;5.154;2022-11-15T05:02:20;100646.53;;;20.25;49.76
58311;BME280;45001;52.218;5.154;2022-11-15T05:04:46;100649.75;;;20.16;50.22
58311;BME280;45001;52.218;5.154;2022-11-15T05:07:11;100648.56;;;20.05;50.46
58311;BME280;45001;52.218;5.154;2022-11-15T05:09:36;100649.03;;;19.95;50.67
58311;BME280;45001;52.218;5.154;2022-11-15T05:12:04;100649.06;;;19.88;50.87
58311;BME280;45001;52.218;5.154;2022-11-15T05:14:29;100654.53;;;19.82;51.11
58311;BME280;45001;52.218;5.154;2022-11-15T05:16:55;100648.31;;;19.74;51.21
58311;BME280;45001;52.218;5.154;2022-11-15T05:19:20;100656.22;;;19.69;51.44
58311;BME280;45001;52.218;5.154;2022-11-15T05:21:45;100654.78;;;19.67;51.47
58311;BME280;45001;52.218;5.154;2022-11-15T05:24:11;100661.69;;;19.63;51.87
58311;BME280;45001;52.218;5.154;2022-11-15T05:26:37;100655.00;;;19.59;51.28
58311;BME280;45001;52.218;5.154;2022-11-15T05:29:02;100666.91;;;19.58;51.89
58311;BME280;45001;52.218;5.154;2022-11-15T05:31:27;100658.78;;;19.58;51.86
58311;BME280;45001;52.218;5.154;2022-11-15T05:33:54;100658.78;;;19.58;51.93
58311;BME280;45001;52.218;5.154;2022-11-15T05:38:57;100653.78;;;19.61;51.80
58311;BME280;45001;52.218;5.154;2022-11-15T05:41:35;100660.41;;;19.65;51.53
58311;BME280;45001;52.218;5.154;2022-11-15T05:44:03;100654.97;;;19.72;51.32
58311;BME280;45001;52.218;5.154;2022-11-15T05:46:31;100667.06;;;19.76;51.48
58311;BME280;45001;52.218;5.154;2022-11-15T05:48:58;100663.88;;;19.79;51.23
58311;BME280;45001;52.218;5.154;2022-11-15T05:51:24;100659.13;;;19.81;51.29
58311;BME280;45001;52.218;5.154;2022-11-15T05:53:51;100669.28;;;19.86;51.17
58311;BME280;45001;52.218;5.154;2022-11-15T05:56:18;100661.97;;;19.86;51.21
58311;BME280;45001;52.218;5.154;2022-11-15T05:58:43;100667.19;;;19.88;51.28
58311;BME280;45001;52.218;5.154;2022-11-15T06:01:09;100657.78;;;19.90;51.31
58311;BME280;45001;52.218;5.154;2022-11-15T06:03:34;100659.88;;;19.88;51.42
58311;BME280;45001;52.218;5.154;2022-11-15T06:05:59;100665.34;;;19.82;51.66
58311;BME280;45001;52.218;5.154;2022-11-15T06:08:25;100671.19;;;19.79;51.68
58311;BME280;45001;52.218;5.154;2022-11-15T06:10:50;100671.59;;;19.75;51.87
58311;BME280;45001;52.218;5.154;2022-11-15T06:13:15;100666.66;;;19.72;51.85
58311;BME280;45001;52.218;5.154;2022-11-15T06:15:40;100671.41;;;19.70;51.97
58311;BME280;45001;52.218;5.154;2022-11-15T06:18:06;100681.63;;;19.68;51.75
58311;BME280;45001;52.218;5.154;2022-11-15T06:20:31;100677.84;;;19.69;51.95
58311;BME280;45001;52.218;5.154;2022-11-15T06:23:01;100675.34;;;19.68;52.01
58311;BME280;45001;52.218;5.154;2022-11-15T06:25:27;100675.81;;;19.65;51.93
58311;BME280;45001;52.218;5.154;2022-11-15T06:27:54;100669.59;;;19.58;52.11
58311;BME280;45001;52.218;5.154;2022-11-15T06:30:21;100675.88;;;19.51;52.36
58311;BME280;45001;52.218;5.154;2022-11-15T06:32:46;100675.88;;;19.45;52.54
58311;BME280;45001;52.218;5.154;2022-11-15T06:35:12;100679.22;;;19.40;52.69
58311;BME280;45001;52.218;5.154;2022-11-15T06:37:37;100681.75;;;19.35;52.74
58311;BME280;45001;52.218;5.154;2022-11-15T06:40:03;100682.78;;;19.34;52.74
58311;BME280;45001;52.218;5.154;2022-11-15T06:42:28;100689.66;;;19.36;52.74
58311;BME280;45001;52.218;5.154;2022-11-15T06:44:53;100690.25;;;19.39;52.52
58311;BME280;45001;52.218;5.154;2022-11-15T06:47:19;100692.53;;;19.42;52.50
58311;BME280;45001;52.218;5.154;2022-11-15T06:49:44;100691.91;;;19.46;52.28
58311;BME280;45001;52.218;5.154;2022-11-15T06:52:09;100693.94;;;19.51;52.27
58311;BME280;45001;52.218;5.154;2022-11-15T06:54:35;100691.84;;;19.53;52.19
58311;BME280;45001;52.218;5.154;2022-11-15T06:57:00;100703.53;;;19.53;52.14
58311;BME280;45001;52.218;5.154;2022-11-15T06:59:25;100704.56;;;19.52;52.07
58311;BME280;45001;52.218;5.154;2022-11-15T07:01:50;100705.81;;;19.50;52.17
58311;BME280;45001;52.218;5.154;2022-11-15T07:04:16;100702.91;;;19.45;52.47
58311;BME280;45001;52.218;5.154;2022-11-15T07:06:41;100702.72;;;19.40;52.65
58311;BME280;45001;52.218;5.154;2022-11-15T07:09:06;100705.00;;;19.36;52.65
58311;BME280;45001;52.218;5.154;2022-11-15T07:11:35;100705.66;;;19.31;52.92
58311;BME280;45001;52.218;5.154;2022-11-15T07:14:01;100710.66;;;19.28;52.99
58311;BME280;45001;52.218;5.154;2022-11-15T07:16:26;100702.97;;;19.25;52.93
58311;BME280;45001;52.218;5.154;2022-11-15T07:18:52;100709.19;;;19.25;53.18
58311;BME280;45001;52.218;5.154;2022-11-15T07:21:17;100710.03;;;19.26;52.77
58311;BME280;45001;52.218;5.154;2022-11-15T07:23:42;100714.38;;;19.33;53.47
58311;BME280;45001;52.218;5.154;2022-11-15T07:26:08;100710.16;;;19.58;52.77
58311;BME280;45001;52.218;5.154;2022-11-15T07:28:34;100719.00;;;19.85;52.47
58311;BME280;45001;52.218;5.154;2022-11-15T07:31:07;100718.59;;;20.58;51.19
58311;BME280;45001;52.218;5.154;2022-11-15T07:33:34;100728.50;;;20.96;50.80
58311;BME280;45001;52.218;5.154;2022-11-15T07:36:04;100720.38;;;20.96;50.94
58311;BME280;45001;52.218;5.154;2022-11-15T07:38:30;100723.09;;;20.96;51.23
58311;BME280;45001;52.218;5.154;2022-11-15T07:40:57;100710.91;;;21.05;51.28
58311;BME280;45001;52.218;5.154;2022-11-15T07:43:23;100700.31;;;21.22;51.42
58311;BME280;45001;52.218;5.154;2022-11-15T07:45:53;100706.66;;;21.35;50.98
58311;BME280;45001;52.218;5.154;2022-11-15T07:48:18;100696.78;;;21.40;51.24
58311;BME280;45001;52.218;5.154;2022-11-15T07:50:43;100708.84;;;21.44;51.24
58311;BME280;45001;52.218;5.154;2022-11-15T07:53:09;100708.00;;;21.44;51.58
58311;BME280;45001;52.218;5.154;2022-11-15T07:55:35;100710.28;;;21.47;51.62
58311;BME280;45001;52.218;5.154;2022-11-15T07:58:06;100711.94;;;21.48;52.02
58311;BME280;45001;52.218;5.154;2022-11-15T08:00:32;100708.66;;;21.39;52.35
58311;BME280;45001;52.218;5.154;2022-11-15T08:03:05;100704.53;;;21.37;52.43
58311;BME280;45001;52.218;5.154;2022-11-15T08:05:32;100702.25;;;21.34;52.83
58311;BME280;45001;52.218;5.154;2022-11-15T08:07:57;100699.16;;;21.30;53.22
58311;BME280;45001;52.218;5.154;2022-11-15T08:10:23;100695.84;;;21.28;53.47
58311;BME280;45001;52.218;5.154;2022-11-15T08:12:57;100692.56;;;21.26;54.03
58311;BME280;45001;52.218;5.154;2022-11-15T08:15:22;100695.25;;;21.26;53.96
58311;BME280;45001;52.218;5.154;2022-11-15T08:17:53;100702.25;;;21.34;53.68
58311;BME280;45001;52.218;5.154;2022-11-15T08:20:18;100704.38;;;21.32;53.40
58311;BME280;45001;52.218;5.154;2022-11-15T08:22:44;100700.41;;;21.34;53.80
58311;BME280;45001;52.218;5.154;2022-11-15T08:25:10;100704.31;;;21.38;53.38
58311;BME280;45001;52.218;5.154;2022-11-15T08:27:35;100701.13;;;21.41;53.70
58311;BME280;45001;52.218;5.154;2022-11-15T08:30:00;100691.53;;;21.45;53.39
58311;BME280;45001;52.218;5.154;2022-11-15T08:32:26;100688.13;;;21.50;53.39
58311;BME280;45001;52.218;5.154;2022-11-15T08:34:51;100678.72;;;21.53;53.41
58311;BME280;45001;52.218;5.154;2022-11-15T08:37:17;100680.16;;;21.55;53.36
58311;BME280;45001;52.218;5.154;2022-11-15T08:39:42;100679.34;;;21.55;53.30
58311;BME280;45001;52.218;5.154;2022-11-15T08:42:10;100673.28;;;21.53;53.35
58311;BME280;45001;52.218;5.154;2022-11-15T08:44:36;100667.78;;;21.59;53.22
58311;BME280;45001;52.218;5.154;2022-11-15T08:47:01;100672.38;;;21.59;53.31
58311;BME280;45001;52.218;5.154;2022-11-15T08:49:26;100662.19;;;21.54;53.44
58311;BME280;45001;52.218;5.154;2022-11-15T08:51:52;100658.91;;;21.52;53.80
58311;BME280;45001;52.218;5.154;2022-11-15T08:54:17;100668.69;;;21.53;54.03
58311;BME280;45001;52.218;5.154;2022-11-15T08:56:42;100673.28;;;21.53;54.10
58311;BME280;45001;52.218;5.154;2022-11-15T08:59:08;100665.41;;;21.51;54.06
58311;BME280;45001;52.218;5.154;2022-11-15T09:01:33;100668.22;;;21.56;54.25
58311;BME280;45001;52.218;5.154;2022-11-15T09:03:58;100666.97;;;21.59;53.99
58311;BME280;45001;52.218;5.154;2022-11-15T09:06:23;100669.81;;;21.64;54.23
58311;BME280;45001;52.218;5.154;2022-11-15T09:08:49;100665.44;;;21.63;54.16
58311;BME280;45001;52.218;5.154;2022-11-15T09:11:14;100670.44;;;21.66;53.88
58311;BME280;45001;52.218;5.154;2022-11-15T09:13:41;100665.00;;;21.66;54.09
58311;BME280;45001;52.218;5.154;2022-11-15T09:16:06;100656.38;;;21.69;54.14
58311;BME280;45001;52.218;5.154;2022-11-15T09:18:32;100662.88;;;21.68;53.72
58311;BME280;45001;52.218;5.154;2022-11-15T09:20:59;100652.66;;;21.82;53.87
58311;BME280;45001;52.218;5.154;2022-11-15T09:23:25;100654.81;;;21.92;53.81
58311;BME280;45001;52.218;5.154;2022-11-15T09:25:51;100649.06;;;22.00;53.60
58311;BME280;45001;52.218;5.154;2022-11-15T09:28:17;100646.97;;;22.02;53.51
58311;BME280;45001;52.218;5.154;2022-11-15T09:30:42;100638.94;;;22.07;53.54
58311;BME280;45001;52.218;5.154;2022-11-15T09:33:09;100643.16;;;22.03;53.84
58311;BME280;45001;52.218;5.154;2022-11-15T09:35:35;100650.59;;;21.96;53.57
58311;BME280;45001;52.218;5.154;2022-11-15T09:38:01;100646.56;;;21.86;53.71
58311;BME280;45001;52.218;5.154;2022-11-15T09:40:27;100642.03;;;21.80;53.97
58311;BME280;45001;52.218;5.154;2022-11-15T09:43:19;100637.09;;;21.77;54.25
58311;BME280;45001;52.218;5.154;2022-11-15T09:46:07;100638.13;;;21.76;54.46
58311;BME280;45001;52.218;5.154;2022-11-15T09:48:54;100644.03;;;21.73;54.76
58311;BME280;45001;52.218;5.154;2022-11-15T09:51:25;100650.50;;;21.72;54.74
58311;BME280;45001;52.218;5.154;2022-11-15T09:56:32;100650.50;;;21.72;54.91
58311;BME280;45001;52.218;5.154;2022-11-15T10:04:10;100643.84;;;21.86;54.29
58311;BME280;45001;52.218;5.154;2022-11-15T10:06:40;100635.00;;;21.91;54.40
58311;BME280;45001;52.218;5.154;2022-11-15T10:09:21;100645.78;;;21.98;54.08
58311;BME280;45001;52.218;5.154;2022-11-15T10:11:49;100643.88;;;21.98;54.11
58311;BME280;45001;52.218;5.154;2022-11-15T10:14:18;100632.31;;;22.03;54.07
58311;BME280;45001;52.218;5.154;2022-11-15T10:22:53;100634.44;;;22.01;54.12
58311;BME280;45001;52.218;5.154;2022-11-15T10:25:23;100621.72;;;22.01;54.03
58311;BME280;45001;52.218;5.154;2022-11-15T10:28:18;100624.41;;;22.01;54.14
58311;BME280;45001;52.218;5.154;2022-11-15T10:30:52;100610.47;;;21.98;54.05
58311;BME280;45001;52.218;5.154;2022-11-15T10:36:19;100609.88;;;21.96;54.00
58311;BME280;45001;52.218;5.154;2022-11-15T10:41:14;100582.31;;;21.80;54.40
58311;BME280;45001;52.218;5.154;2022-11-15T10:43:40;100590.81;;;21.72;54.59
58311;BME280;45001;52.218;5.154;2022-11-15T10:46:23;100576.06;;;21.68;54.50
58311;BME280;45001;52.218;5.154;2022-11-15T10:48:48;100574.59;;;21.35;54.32
58311;BME280;45001;52.218;5.154;2022-11-15T10:51:27;100566.78;;;21.45;53.96
58311;BME280;45001;52.218;5.154;2022-11-15T10:53:55;100566.91;;;21.51;53.58
58311;BME280;45001;52.218;5.154;2022-11-15T10:56:24;100563.00;;;21.46;53.18
58311;BME280;45001;52.218;5.154;2022-11-15T10:58:53;100566.28;;;21.48;52.99
58311;BME280;45001;52.218;5.154;2022-11-15T11:01:22;100571.19;;;21.58;52.62
58311;BME280;45001;52.218;5.154;2022-11-15T11:04:05;100565.66;;;21.65;52.12
58311;BME280;45001;52.218;5.154;2022-11-15T11:06:55;100551.03;;;21.66;51.83
58311;BME280;45001;52.218;5.154;2022-11-15T11:09:31;100550.19;;;21.65;51.55
58311;BME280;45001;52.218;5.154;2022-11-15T11:11:57;100549.38;;;21.65;51.53
58311;BME280;45001;52.218;5.154;2022-11-15T11:14:25;100544.41;;;21.62;51.34
58311;BME280;45001;52.218;5.154;2022-11-15T11:17:43;100545.69;;;21.29;52.08
58311;BME280;45001;52.218;5.154;2022-11-15T11:25:35;100542.06;;;20.43;54.00
58311;BME280;45001;52.218;5.154;2022-11-15T11:31:25;100545.16;;;20.21;54.62
58311;BME280;45001;52.218;5.154;2022-11-15T11:34:09;100553.13;;;20.16;54.69
58311;BME280;45001;52.218;5.154;2022-11-15T11:36:46;100546.94;;;20.09;54.66
58311;BME280;45001;52.218;5.154;2022-11-15T11:39:41;100538.66;;;20.04;54.76
58311;BME280;45001;52.218;5.154;2022-11-15T11:47:21;100541.31;;;19.85;55.18
58311;BME280;45001;52.218;5.154;2022-11-15T11:49:58;100526.31;;;19.83;55.04
58311;BME280;45001;52.218;5.154;2022-11-15T11:52:30;100520.97;;;19.76;55.25
58311;BME280;45001;52.218;5.154;2022-11-15T11:55:05;100508.69;;;19.73;55.05
58311;BME280;45001;52.218;5.154;2022-11-15T11:57:40;100500.16;;;19.70;55.33
58311;BME280;45001;52.218;5.154;2022-11-15T12:00:20;100485.44;;;19.66;55.35
58311;BME280;45001;52.218;5.154;2022-11-15T12:08:31;100467.66;;;19.83;54.44
58311;BME280;45001;52.218;5.154;2022-11-15T12:11:07;100475.78;;;20.27;53.68
58311;BME280;45001;52.218;5.154;2022-11-15T12:13:34;100477.00;;;20.49;53.38
58311;BME280;45001;52.218;5.154;2022-11-15T12:16:10;100470.63;;;20.62;53.02
58311;BME280;45001;52.218;5.154;2022-11-15T12:18:37;100450.91;;;20.74;53.23
58311;BME280;45001;52.218;5.154;2022-11-15T12:21:37;100463.31;;;20.81;53.07
58311;BME280;45001;52.218;5.154;2022-11-15T12:24:18;100446.38;;;20.86;53.41
58311;BME280;45001;52.218;5.154;2022-11-15T12:27:13;100446.97;;;20.88;53.27
58311;BME280;45001;52.218;5.154;2022-11-15T12:29:47;100428.97;;;20.94;52.54
58311;BME280;45001;52.218;5.154;2022-11-15T12:32:20;100435.59;;;20.98;53.18
58311;BME280;45001;52.218;5.154;2022-11-15T12:34:52;100428.88;;;21.00;53.02
58311;BME280;45001;52.218;5.154;2022-11-15T12:40:23;100424.06;;;21.02;52.74
58311;BME280;45001;52.218;5.154;2022-11-15T12:59:07;100390.91;;;21.30;52.17
58311;BME280;45001;52.218;5.154;2022-11-15T13:07:00;100364.41;;;21.44;52.85
58311;BME280;45001;52.218;5.154;2022-11-15T13:11:59;100371.00;;;21.48;52.62
58311;BME280;45001;52.218;5.154;2022-11-15T13:15:00;100364.84;;;21.41;52.34
58311;BME280;45001;52.218;5.154;2022-11-15T13:17:36;100367.44;;;21.36;53.23
58311;BME280;45001;52.218;5.154;2022-11-15T13:22:47;100360.59;;;21.34;52.69
58311;BME280;45001;52.218;5.154;2022-11-15T13:25:46;100347.38;;;21.37;52.89
58311;BME280;45001;52.218;5.154;2022-11-15T13:30:40;100336.53;;;21.37;52.98
58311;BME280;45001;52.218;5.154;2022-11-15T13:33:33;100339.03;;;21.39;52.96
58311;BME280;45001;52.218;5.154;2022-11-15T13:36:02;100331.72;;;21.39;52.93
58311;BME280;45001;52.218;5.154;2022-11-15T13:38:30;100329.00;;;21.39;52.96
58311;BME280;45001;52.218;5.154;2022-11-15T13:40:57;100323.56;;;21.39;53.17
58311;BME280;45001;52.218;5.154;2022-11-15T13:46:11;100323.56;;;21.39;52.33
58311;BME280;45001;52.218;5.154;2022-11-15T13:48:38;100312.72;;;21.27;52.59
58311;BME280;45001;52.218;5.154;2022-11-15T13:53:43;100309.91;;;21.34;52.21
58311;BME280;45001;52.218;5.154;2022-11-15T13:56:12;100299.16;;;21.39;52.43
58311;BME280;45001;52.218;5.154;2022-11-15T13:58:38;100306.72;;;21.37;52.56
58311;BME280;45001;52.218;5.154;2022-11-15T14:01:05;100302.38;;;21.36;52.40
58311;BME280;45001;52.218;5.154;2022-11-15T14:03:33;100299.91;;;21.46;52.21
58311;BME280;45001;52.218;5.154;2022-11-15T14:06:28;100292.78;;;21.34;51.79
58311;BME280;45001;52.218;5.154;2022-11-15T14:11:26;100290.69;;;21.24;52.17
58311;BME280;45001;52.218;5.154;2022-11-15T14:14:19;100280.91;;;21.23;51.85
58311;BME280;45001;52.218;5.154;2022-11-15T14:16:47;100273.72;;;21.28;51.56
58311;BME280;45001;52.218;5.154;2022-11-15T14:19:34;100283.38;;;21.36;50.88
58311;BME280;45001;52.218;5.154;2022-11-15T14:22:23;100275.25;;;21.36;51.02
58311;BME280;45001;52.218;5.154;2022-11-15T14:27:31;100262.97;;;21.34;50.58
58311;BME280;45001;52.218;5.154;2022-11-15T14:29:57;100264.63;;;21.35;50.57
58311;BME280;45001;52.218;5.154;2022-11-15T14:32:25;100254.50;;;21.18;49.82
58311;BME280;45001;52.218;5.154;2022-11-15T14:35:14;100251.88;;;20.88;50.38
58311;BME280;45001;52.218;5.154;2022-11-15T14:37:40;100245.72;;;20.39;51.38
58311;BME280;45001;52.218;5.154;2022-11-15T14:40:06;100239.06;;;20.23;51.67
58311;BME280;45001;52.218;5.154;2022-11-15T14:42:31;100236.81;;;20.20;51.81
58311;BME280;45001;52.218;5.154;2022-11-15T14:44:57;100237.56;;;20.27;51.69
58311;BME280;45001;52.218;5.154;2022-11-15T14:47:23;100226.38;;;20.35;52.16
58311;BME280;45001;52.218;5.154;2022-11-15T14:49:48;100224.78;;;20.88;50.85